Detalii statie MOLDOVA TIGANASI [00001D08]

Toti senzorii

Date Temperatura solului [C]Precipitatii [mm]Voltaj baterie [mV]Leaf Wetness [Min]HC Air temperature [C]HC Relative humidity [%]Punctul de roua [C]
medieminmaxsumaultimatimpmedieminmaxmediemediemin
2018-12-09 16:00:00 0.1 0 0.3 0 7314 1.84 1.04 2.47 100 1.8 1
2018-12-09 17:00:00 0.1 0 0.3 0 7186 0.61 0.41 0.9 100 0.5 0.4
2018-12-09 18:00:00 0.2 0.1 0.3 0 7098 0.32 0.24 0.4 100 0.2 0.2
2018-12-09 19:00:00 0.2 0.1 0.3 0.2 7050 0.12 -0.05 0.32 100 0.1 0
2018-12-09 20:00:00 0.1 0 0.3 0 7030 -0.09 -0.43 0.2 100 0 -0.3
2018-12-09 21:00:00 0.1 0 0.3 0 7020 -0.44 -0.62 -0.3 100 -0.3 -0.5
2018-12-09 22:00:00 0.1 0 0.3 0 7020 -0.52 -0.68 -0.38 100 -0.3 -0.5
2018-12-09 23:00:00 0.1 0 0.3 0 7020 -0.66 -0.75 -0.6 100 -0.5 -0.6
2018-12-10 00:00:00 0.1 0 0.3 0 7010 -0.6 -0.65 -0.56 100 -0.4 -0.5
2018-12-10 01:00:00 0.2 0.1 0.3 0 7000 -0.65 -0.7 -0.6 100 -0.5 -0.6
2018-12-10 02:00:00 0.2 0.1 0.3 0 7000 -0.79 -0.97 -0.68 100 -0.6 -0.8
2018-12-10 03:00:00 0.1 0.1 0.3 0 7000 -0.91 -1.06 -0.8 100 -0.7 -0.9
2018-12-10 04:00:00 0.2 0.1 0.3 0 6982 -1.11 -1.28 -0.85 100 -0.9 -1.1
2018-12-10 05:00:00 0.2 0.1 0.3 0 6982 -1.12 -1.37 -0.98 100 -0.9 -1.2
2018-12-10 06:00:00 0.2 0.1 0.3 0 6962 -1.34 -1.45 -1.2 100 -1.2 -1.3
2018-12-10 07:00:00 0.1 0 0.3 0 6972 -1.54 -2.27 -1.17 100 -1.4 -2.1
2018-12-10 08:00:00 0.2 0 0.3 0 6952 -1.26 -1.46 -1.09 100 -1.1 -1.3
2018-12-10 09:00:00 0.1 0 0.3 0 6992 -1.01 -1.1 -0.94 100 -0.8 -1
2018-12-10 10:00:00 0.2 0.1 0.4 0 7108 -1.14 -1.31 -0.99 100 -0.9 -1.2
2018-12-10 11:00:00 0.2 0.1 0.3 0 7332 -0.88 -1.07 -0.74 100 -0.7 -0.9
2018-12-10 12:00:00 0.2 0.1 0.3 0 7362 -0.49 -0.67 -0.34 100 -0.3 -0.5
2018-12-10 13:00:00 0.2 0 0.3 0 7362 -0.24 -0.34 -0.11 100 -0.1 -0.2
2018-12-10 14:00:00 0.2 0.1 0.3 0 7362 0.09 -0.05 0.17 100 0 0
2018-12-10 15:00:00 0.3 0.2 0.4 0.2 7332 0.17 0.1 0.27 100 0.1 0.1
2018-12-10 16:00:00 0.3 0.3 0.4 0 7196 -0.16 -0.46 0.12 100 0 -0.3
2018-12-10 17:00:00 0.3 0.3 0.4 0 7108 -0.33 -0.48 -0.26 100 -0.1 -0.3
2018-12-10 18:00:00 0.3 0.2 0.4 0 7050 -0.55 -0.75 -0.38 100 -0.4 -0.6
2018-12-10 19:00:00 0.3 0.2 0.4 0 7020 -0.62 -0.69 -0.55 100 -0.4 -0.5
2018-12-10 20:00:00 0.3 0.3 0.4 0 7000 -0.82 -0.96 -0.66 100 -0.6 -0.8
2018-12-10 21:00:00 0.3 0.3 0.4 0 7000 -0.77 -0.86 -0.71 100 -0.6 -0.7
2018-12-10 22:00:00 0.3 0.3 0.4 0 6992 -0.52 -0.68 -0.38 100 -0.3 -0.5
2018-12-10 23:00:00 0.3 0.1 0.4 0 6982 -0.43 -0.46 -0.41 100 -0.3 -0.3
2018-12-11 00:00:00 0.3 0.2 0.4 0 6982 -0.34 -0.41 -0.27 100 -0.2 -0.3
2018-12-11 01:00:00 0.3 0.3 0.4 0 6972 -0.24 -0.28 -0.22 100 -0.1 -0.1
2018-12-11 02:00:00 0.3 0.3 0.4 0 6962 -0.19 -0.23 -0.12 100 0 -0.1
2018-12-11 03:00:00 0.3 0.3 0.4 0.2 6962 0.03 -0.15 0.4 100 0 0
2018-12-11 04:00:00 0.3 0.3 0.4 0.2 6932 0.23 0.05 0.53 100 0.1 0
2018-12-11 05:00:00 0.3 0.3 0.4 0.4 6942 0.26 -0.03 0.54 100 0.2 0
2018-12-11 06:00:00 0.3 0.2 0.4 0.2 6922 0.15 -0.17 0.44 100 0.1 0
2018-12-11 07:00:00 0.3 0.3 0.4 0.4 6932 0.46 0.34 0.57 100 0.4 0.3
2018-12-11 08:00:00 0.3 0.3 0.4 0 6922 0.37 0.25 0.44 100 0.3 0.2
2018-12-11 09:00:00 0.3 0.3 0.5 0.2 6972 0.99 0.49 1.34 100 0.9 0.4
2018-12-11 10:00:00 0.4 0.3 0.5 0.2 7176 1.33 1.17 1.58 100 1.2 1.1
2018-12-11 11:00:00 0.5 0.4 0.6 0 7382 2.01 1.28 2.91 100 1.9 1.2
2018-12-11 12:00:00 0.7 0.5 0.8 0 7382 2.78 2.41 3.03 100 2.7 2.4
2018-12-11 13:00:00 0.9 0.8 1.1 0 7372 3.19 3.02 3.33 100 3.1 3
2018-12-11 14:00:00 1.2 1.1 1.3 0 7372 3.17 2.94 3.4 98.28 2.8 2.3
2018-12-11 15:00:00 1.3 1.3 1.4 0 7392 2.66 2.32 2.99 98.31 2.3 1.9